Time;durP1;ratioP1;P1;durP2;ratioP2;P2;SDS_P1;SDS_P2;PMS_P1;PMS_P2;Temp;Humidity;BMP_temperature;BMP_pressure;BME280_temperature;BME280_humidity;BME280_pressure;Samples;Min_cycle;Max_cycle;Signal;HPM_P1;HPM_P2
2023/03/25 00:01:15;;;;;;;;;;;9.90;80.20;;;;;;5052674;28;19913;-84
2023/03/25 00:03:41;;;;;;;;;;;9.90;80.00;;;;;;5029861;28;19952;-84
2023/03/25 00:06:08;;;;;;;;;;;9.90;80.10;;;;;;5040976;28;19913;-83
2023/03/25 00:08:33;;;;;;;;;;;9.90;79.90;;;;;;5043816;28;19956;-84
2023/03/25 00:11:00;;;;;;;;;;;9.90;79.80;;;;;;5041626;28;19943;-83
2023/03/25 00:13:25;;;;;;;;;;;9.80;79.80;;;;;;5043470;28;19914;-83
2023/03/25 00:15:52;;;;;;;;;;;9.80;79.80;;;;;;5039733;28;19960;-83
2023/03/25 00:18:19;;;;;;;;;;;9.80;79.60;;;;;;5040644;28;19932;-83
2023/03/25 00:20:48;;;;;;;;;;;9.70;79.30;;;;;;5039017;28;19936;-83
2023/03/25 00:23:17;;;;;;;;;;;9.60;79.70;;;;;;5040056;28;19924;-83
2023/03/25 00:25:43;;;;;;;;;;;9.60;79.80;;;;;;5049178;28;19936;-83
2023/03/25 00:28:13;;;;;;;;;;;9.60;80.00;;;;;;5054660;28;19920;-83
2023/03/25 00:30:38;;;;;;;;;;;9.50;80.20;;;;;;5054733;28;19913;-84
2023/03/25 00:33:04;;;;;;;;;;;9.50;79.90;;;;;;5044080;28;19975;-83
2023/03/25 00:35:31;;;;;;;;;;;9.50;80.00;;;;;;5042711;28;20364;-82
2023/03/25 00:38:01;;;;;;;;;;;9.50;80.00;;;;;;5041991;28;19924;-83
2023/03/25 00:40:28;;;;;;;;;;;9.50;79.90;;;;;;5043599;28;19967;-83
2023/03/25 00:42:54;;;;;;;;;;;9.50;80.00;;;;;;5043072;28;19917;-83
2023/03/25 00:45:19;;;;;;;;;;;9.60;79.80;;;;;;5040008;28;19963;-83
2023/03/25 00:47:45;;;;;;;;;;;9.50;79.40;;;;;;5035291;28;19913;-83
2023/03/25 00:50:11;;;;;;;;;;;9.60;79.70;;;;;;5045193;28;19913;-83
2023/03/25 00:52:36;;;;;;;;;;;9.70;79.00;;;;;;5043002;28;19928;-83
2023/03/25 00:55:03;;;;;;;;;;;9.60;79.20;;;;;;5042354;28;20318;-83
2023/03/25 00:57:29;;;;;;;;;;;9.60;79.50;;;;;;5030813;28;20021;-83
2023/03/25 00:59:54;;;;;;;;;;;9.70;79.50;;;;;;5045295;28;19909;-83
2023/03/25 01:02:20;;;;;;;;;;;9.80;79.10;;;;;;5049894;28;19917;-84
2023/03/25 01:04:48;;;;;;;;;;;9.80;79.00;;;;;;5037029;28;19963;-84
2023/03/25 01:07:20;;;;;;;;;;;9.70;79.40;;;;;;5050157;28;19959;-83
2023/03/25 01:09:46;;;;;;;;;;;9.70;79.30;;;;;;5049091;28;19913;-83
2023/03/25 01:12:15;;;;;;;;;;;9.70;79.60;;;;;;5043669;28;19921;-83
2023/03/25 01:14:41;;;;;;;;;;;9.70;79.80;;;;;;5051190;28;21428;-83
2023/03/25 01:17:07;;;;;;;;;;;9.60;79.90;;;;;;5046358;28;19920;-83
2023/03/25 01:19:33;;;;;;;;;;;9.70;79.80;;;;;;5044606;28;19924;-83
2023/03/25 01:21:58;;;;;;;;;;;9.80;79.60;;;;;;5040086;28;20497;-83
2023/03/25 01:24:24;;;;;;;;;;;9.70;79.70;;;;;;5022044;28;20009;-83
2023/03/25 01:26:49;;;;;;;;;;;9.70;79.40;;;;;;5043099;28;19917;-83
2023/03/25 01:29:20;;;;;;;;;;;9.80;79.30;;;;;;5043180;28;19917;-83
2023/03/25 01:31:46;;;;;;;;;;;9.70;80.30;;;;;;5041663;28;19917;-83
2023/03/25 01:34:12;;;;;;;;;;;9.70;80.60;;;;;;5040766;28;19913;-83
2023/03/25 01:36:38;;;;;;;;;;;9.60;81.10;;;;;;5036527;28;19921;-83
2023/03/25 01:39:05;;;;;;;;;;;9.60;81.70;;;;;;5041603;28;20393;-83
2023/03/25 01:41:31;;;;;;;;;;;9.60;81.70;;;;;;5039466;28;19916;-83
2023/03/25 01:44:03;;;;;;;;;;;9.60;81.20;;;;;;5039872;28;19925;-83
2023/03/25 01:46:28;;;;;;;;;;;9.60;81.10;;;;;;5019531;28;19929;-83
2023/03/25 01:48:55;;;;;;;;;;;9.50;81.50;;;;;;5030505;28;19914;-83
2023/03/25 01:51:23;;;;;;;;;;;9.60;80.80;;;;;;5026097;28;19919;-83
2023/03/25 01:53:50;;;;;;;;;;;9.50;81.20;;;;;;5041685;28;20347;-83
2023/03/25 01:56:17;;;;;;;;;;;9.60;80.60;;;;;;5042941;28;20043;-83
2023/03/25 01:58:43;;;;;;;;;;;9.50;80.70;;;;;;5041737;28;20028;-83
2023/03/25 02:01:12;;;;;;;;;;;9.60;80.30;;;;;;5039149;28;20371;-82
2023/03/25 02:03:45;;;;;;;;;;;9.60;80.10;;;;;;5042228;28;19924;-83
2023/03/25 02:06:38;;;;;;;;;;;9.60;79.40;;;;;;5041837;28;19913;-82
2023/03/25 02:09:05;;;;;;;;;;;9.60;79.40;;;;;;5035103;28;19917;-83
2023/03/25 02:11:31;;;;;;;;;;;9.60;79.20;;;;;;5023837;28;20016;-83
2023/03/25 02:13:59;;;;;;;;;;;9.60;79.20;;;;;;5046685;28;20004;-83
2023/03/25 02:16:43;;;;;;;;;;;9.60;78.60;;;;;;5052539;28;20568;-83
2023/03/25 02:19:11;;;;;;;;;;;9.60;79.00;;;;;;5045514;28;19975;-83
2023/03/25 02:21:56;;;;;;;;;;;9.50;79.20;;;;;;5043818;28;20452;-82
2023/03/25 02:24:42;;;;;;;;;;;9.60;79.10;;;;;;5044803;28;19924;-81
2023/03/25 02:27:14;;;;;;;;;;;9.60;79.10;;;;;;5052065;28;19932;-82
2023/03/25 02:29:47;;;;;;;;;;;9.60;78.90;;;;;;5056840;28;19909;-85
2023/03/25 02:32:13;;;;;;;;;;;9.50;78.90;;;;;;5059412;28;19982;-83
2023/03/25 02:34:52;;;;;;;;;;;9.60;78.40;;;;;;5049759;28;20314;-83
2023/03/25 02:37:20;;;;;;;;;;;9.60;78.40;;;;;;5039606;28;19971;-83
2023/03/25 02:39:59;;;;;;;;;;;9.60;78.00;;;;;;5045679;28;19920;-83
2023/03/25 02:42:24;;;;;;;;;;;9.60;78.20;;;;;;5041354;28;19920;-83
2023/03/25 02:45:09;;;;;;;;;;;9.50;77.80;;;;;;5021416;28;19909;-83
2023/03/25 02:47:36;;;;;;;;;;;9.60;77.70;;;;;;5035771;28;19955;-83
2023/03/25 02:50:08;;;;;;;;;;;9.50;77.60;;;;;;5040212;28;19928;-83
2023/03/25 02:52:37;;;;;;;;;;;9.60;77.50;;;;;;5040017;28;20004;-83
2023/03/25 02:55:04;;;;;;;;;;;9.50;77.80;;;;;;5021164;28;20282;-82
2023/03/25 02:57:32;;;;;;;;;;;9.50;77.20;;;;;;5036787;28;19986;-83
2023/03/25 02:59:58;;;;;;;;;;;9.50;77.90;;;;;;5036513;28;19913;-82
2023/03/25 03:02:24;;;;;;;;;;;9.50;77.60;;;;;;5047439;28;19964;-82
2023/03/25 03:04:55;;;;;;;;;;;9.50;77.80;;;;;;5054795;28;19917;-82
2023/03/25 03:07:27;;;;;;;;;;;9.50;77.80;;;;;;5049366;28;19917;-82
2023/03/25 03:10:02;;;;;;;;;;;9.50;77.90;;;;;;5045821;28;19917;-82
2023/03/25 03:12:46;;;;;;;;;;;9.50;77.80;;;;;;5050587;28;20422;-82
2023/03/25 03:15:19;;;;;;;;;;;9.50;77.30;;;;;;5048018;28;19967;-82
2023/03/25 03:17:59;;;;;;;;;;;9.50;77.30;;;;;;5045416;28;19928;-82
2023/03/25 03:20:31;;;;;;;;;;;9.50;77.60;;;;;;5020026;28;19979;-82
2023/03/25 03:23:04;;;;;;;;;;;9.50;77.50;;;;;;5036553;28;19917;-82
2023/03/25 03:25:35;;;;;;;;;;;9.50;77.40;;;;;;5047201;28;19932;-82
2023/03/25 03:28:21;;;;;;;;;;;9.50;77.40;;;;;;5046951;28;19913;-82
2023/03/25 03:30:53;;;;;;;;;;;9.40;77.50;;;;;;5046855;28;19913;-82
2023/03/25 03:33:24;;;;;;;;;;;9.40;77.90;;;;;;5044172;28;19913;-82
2023/03/25 03:35:56;;;;;;;;;;;9.50;76.90;;;;;;5046780;28;19920;-82
2023/03/25 03:38:23;;;;;;;;;;;9.40;77.10;;;;;;5047486;28;19913;-82
2023/03/25 03:40:50;;;;;;;;;;;9.40;77.30;;;;;;5052930;28;19984;-83
2023/03/25 03:43:36;;;;;;;;;;;9.40;77.10;;;;;;5048315;28;19979;-82
2023/03/25 03:46:05;;;;;;;;;;;9.40;77.40;;;;;;5049800;28;19920;-82
2023/03/25 03:48:37;;;;;;;;;;;9.40;77.40;;;;;;5049025;28;20460;-82
2023/03/25 03:51:09;;;;;;;;;;;9.30;78.60;;;;;;5045408;28;19963;-83
2023/03/25 03:53:36;;;;;;;;;;;9.30;79.50;;;;;;5057602;28;19924;-82
2023/03/25 03:56:07;;;;;;;;;;;9.10;80.80;;;;;;5050313;28;20480;-82
2023/03/25 03:58:36;;;;;;;;;;;9.10;80.80;;;;;;5032297;28;19917;-82
2023/03/25 04:01:08;;;;;;;;;;;9.10;81.40;;;;;;5046572;28;19913;-82
2023/03/25 04:03:41;;;;;;;;;;;9.10;81.60;;;;;;5047791;28;20097;-82
2023/03/25 04:06:12;;;;;;;;;;;9.00;81.50;;;;;;5042342;28;19971;-82
2023/03/25 04:08:41;;;;;;;;;;;9.00;81.20;;;;;;5044130;28;19924;-82
2023/03/25 04:11:10;;;;;;;;;;;9.00;81.10;;;;;;5028680;28;19989;-82
2023/03/25 04:13:38;;;;;;;;;;;9.10;80.30;;;;;;5053962;28;19923;-82
2023/03/25 04:16:04;;;;;;;;;;;9.10;80.30;;;;;;5043968;28;20011;-83
2023/03/25 04:18:32;;;;;;;;;;;9.10;80.40;;;;;;5041615;28;19917;-82
2023/03/25 04:20:58;;;;;;;;;;;9.10;80.00;;;;;;5043599;28;19917;-82
2023/03/25 04:23:23;;;;;;;;;;;9.10;80.20;;;;;;5043121;28;20379;-82
2023/03/25 04:25:52;;;;;;;;;;;9.10;80.10;;;;;;5031020;28;19925;-82
2023/03/25 04:28:17;;;;;;;;;;;9.10;79.80;;;;;;5040793;28;19913;-82
2023/03/25 04:30:47;;;;;;;;;;;9.10;79.70;;;;;;5042103;28;19940;-81
2023/03/25 04:33:13;;;;;;;;;;;9.20;79.60;;;;;;5040585;28;20286;-82
2023/03/25 04:35:39;;;;;;;;;;;9.10;80.20;;;;;;5014054;28;20290;-82
2023/03/25 04:38:05;;;;;;;;;;;9.10;80.20;;;;;;5034801;28;19920;-82
2023/03/25 04:40:31;;;;;;;;;;;9.10;79.70;;;;;;5032826;28;19913;-82
2023/03/25 04:42:57;;;;;;;;;;;9.10;79.90;;;;;;5035477;28;19923;-81
2023/03/25 04:45:24;;;;;;;;;;;9.20;79.10;;;;;;5047173;28;20007;-82
2023/03/25 04:47:52;;;;;;;;;;;9.20;79.50;;;;;;5025010;28;20397;-82
2023/03/25 04:50:26;;;;;;;;;;;9.10;80.30;;;;;;5029561;28;20383;-81
2023/03/25 04:52:52;;;;;;;;;;;9.10;80.90;;;;;;5035182;28;19913;-82
2023/03/25 04:55:18;;;;;;;;;;;9.00;81.10;;;;;;5035989;28;19919;-82
2023/03/25 04:57:45;;;;;;;;;;;9.00;81.10;;;;;;5043871;28;19927;-82
2023/03/25 05:00:11;;;;;;;;;;;9.00;81.00;;;;;;5018608;28;20310;-85
2023/03/25 05:02:42;;;;;;;;;;;9.00;80.90;;;;;;5027733;28;19917;-82
2023/03/25 05:05:07;;;;;;;;;;;9.00;81.00;;;;;;5039735;28;19984;-82
2023/03/25 05:07:33;;;;;;;;;;;9.00;80.70;;;;;;5046049;28;19944;-82
2023/03/25 05:09:58;;;;;;;;;;;9.10;80.70;;;;;;5044113;28;19917;-82
2023/03/25 05:12:24;;;;;;;;;;;9.10;80.70;;;;;;5044162;28;19985;-82
2023/03/25 05:14:49;;;;;;;;;;;9.00;81.00;;;;;;5045954;28;19921;-81
2023/03/25 05:17:15;;;;;;;;;;;8.90;80.60;;;;;;5055577;28;19905;-85
2023/03/25 05:19:42;;;;;;;;;;;8.90;81.00;;;;;;5034658;28;19985;-85
2023/03/25 05:22:08;;;;;;;;;;;9.00;80.80;;;;;;5050117;28;19920;-83
2023/03/25 05:24:33;;;;;;;;;;;8.90;81.10;;;;;;5052247;28;19913;-82
2023/03/25 05:27:01;;;;;;;;;;;9.00;81.30;;;;;;5053917;28;19988;-82
2023/03/25 05:29:26;;;;;;;;;;;8.90;80.90;;;;;;5049974;28;19920;-82
2023/03/25 05:31:52;;;;;;;;;;;9.00;80.60;;;;;;5050664;28;19917;-82
2023/03/25 05:34:19;;;;;;;;;;;9.00;80.70;;;;;;5047240;28;19914;-81
2023/03/25 05:36:44;;;;;;;;;;;9.00;80.80;;;;;;5047862;28;19913;-82
2023/03/25 05:39:10;;;;;;;;;;;9.00;80.90;;;;;;5046535;28;19966;-82
2023/03/25 05:41:39;;;;;;;;;;;8.90;81.20;;;;;;5048086;28;19913;-82
2023/03/25 05:44:05;;;;;;;;;;;8.90;81.20;;;;;;5034809;28;19967;-82
2023/03/25 05:46:30;;;;;;;;;;;8.80;81.30;;;;;;5052867;28;19921;-82
2023/03/25 05:48:56;;;;;;;;;;;8.90;81.60;;;;;;5049210;28;19944;-82
2023/03/25 05:51:22;;;;;;;;;;;8.90;81.80;;;;;;5049380;28;19909;-82
2023/03/25 05:53:51;;;;;;;;;;;8.90;81.60;;;;;;5030996;28;19913;-82
2023/03/25 05:56:20;;;;;;;;;;;8.90;81.70;;;;;;5030099;28;20440;-81
2023/03/25 05:58:47;;;;;;;;;;;8.80;81.90;;;;;;5046050;28;19945;-82
2023/03/25 06:01:12;;;;;;;;;;;8.90;81.70;;;;;;5046359;28;19913;-81
2023/03/25 06:03:38;;;;;;;;;;;8.90;81.30;;;;;;5026667;28;19925;-82
2023/03/25 06:06:04;;;;;;;;;;;9.00;81.30;;;;;;5024487;28;19913;-82
2023/03/25 06:08:30;;;;;;;;;;;9.00;81.00;;;;;;5042759;28;19927;-81
2023/03/25 06:10:57;;;;;;;;;;;9.00;81.30;;;;;;5042937;28;19997;-82
2023/03/25 06:13:23;;;;;;;;;;;9.10;81.20;;;;;;5025171;28;19983;-82
2023/03/25 06:15:54;;;;;;;;;;;9.10;81.40;;;;;;5042253;28;19913;-82
2023/03/25 06:18:23;;;;;;;;;;;9.00;81.40;;;;;;5042848;28;19917;-82
2023/03/25 06:20:50;;;;;;;;;;;9.00;81.20;;;;;;5043463;28;19914;-82
2023/03/25 06:23:16;;;;;;;;;;;9.00;81.40;;;;;;5052016;28;19961;-82
2023/03/25 06:25:41;;;;;;;;;;;9.00;81.40;;;;;;5046337;28;19909;-82
2023/03/25 06:28:07;;;;;;;;;;;9.00;81.00;;;;;;5050814;28;19925;-82
2023/03/25 06:30:32;;;;;;;;;;;9.00;81.00;;;;;;5058737;28;19909;-82
2023/03/25 06:33:01;;;;;;;;;;;9.10;80.60;;;;;;5044177;28;19924;-82
2023/03/25 06:35:27;;;;;;;;;;;9.10;80.60;;;;;;5045989;28;19913;-82
2023/03/25 06:37:52;;;;;;;;;;;9.20;80.50;;;;;;5045663;28;19959;-82
2023/03/25 06:40:18;;;;;;;;;;;9.20;80.50;;;;;;5046975;28;19917;-83
2023/03/25 06:42:44;;;;;;;;;;;9.10;81.50;;;;;;5054596;28;19921;-82
2023/03/25 06:45:11;;;;;;;;;;;9.20;81.80;;;;;;5042337;28;19991;-83
2023/03/25 06:47:37;;;;;;;;;;;9.10;82.50;;;;;;5020029;28;19974;-81
2023/03/25 06:50:03;;;;;;;;;;;9.10;83.30;;;;;;5034856;28;20386;-81
2023/03/25 06:52:28;;;;;;;;;;;9.00;83.60;;;;;;5029986;28;19924;-82
2023/03/25 06:54:54;;;;;;;;;;;9.00;84.10;;;;;;5030724;28;19919;-80
2023/03/25 06:57:19;;;;;;;;;;;9.00;84.50;;;;;;5035156;28;19917;-81
2023/03/25 06:59:46;;;;;;;;;;;9.00;84.60;;;;;;5039269;28;19914;-81
2023/03/25 07:02:12;;;;;;;;;;;9.10;83.80;;;;;;5030846;28;19919;-80
2023/03/25 07:04:38;;;;;;;;;;;9.00;83.70;;;;;;5031858;28;19920;-80
2023/03/25 07:07:03;;;;;;;;;;;9.00;84.00;;;;;;5032918;28;20418;-81
2023/03/25 07:09:29;;;;;;;;;;;9.10;83.70;;;;;;5019841;28;20004;-81
2023/03/25 07:11:54;;;;;;;;;;;9.10;82.90;;;;;;5017816;28;19917;-80
2023/03/25 07:14:20;;;;;;;;;;;9.20;82.60;;;;;;5037698;28;19917;-82
2023/03/25 07:16:45;;;;;;;;;;;9.20;82.50;;;;;;5017732;28;20304;-81
2023/03/25 07:19:11;;;;;;;;;;;9.20;81.90;;;;;;5033124;28;19921;-80
2023/03/25 07:21:36;;;;;;;;;;;9.30;81.40;;;;;;5033781;28;19955;-81
2023/03/25 07:24:01;;;;;;;;;;;9.50;80.80;;;;;;5030610;28;20000;-80
2023/03/25 07:26:27;;;;;;;;;;;9.50;81.10;;;;;;5044160;28;19920;-81
2023/03/25 07:28:52;;;;;;;;;;;9.50;81.30;;;;;;5037134;28;19913;-81
2023/03/25 07:31:18;;;;;;;;;;;9.50;81.20;;;;;;5015766;28;20417;-80
2023/03/25 07:33:43;;;;;;;;;;;9.40;81.40;;;;;;5033966;28;19947;-81
2023/03/25 07:36:10;;;;;;;;;;;9.40;81.30;;;;;;5032106;28;19913;-80
2023/03/25 07:38:35;;;;;;;;;;;9.50;81.60;;;;;;5030389;28;19983;-79
2023/03/25 07:41:05;;;;;;;;;;;9.60;81.40;;;;;;5033477;28;20579;-80
2023/03/25 07:43:31;;;;;;;;;;;9.60;81.20;;;;;;5037572;28;20317;-80
2023/03/25 07:45:57;;;;;;;;;;;9.70;81.00;;;;;;5047468;28;19913;-79
2023/03/25 07:48:24;;;;;;;;;;;9.80;80.90;;;;;;5040517;28;20341;-88
2023/03/25 07:50:50;;;;;;;;;;;9.80;80.20;;;;;;5036175;28;19920;-81
2023/03/25 07:53:16;;;;;;;;;;;9.80;79.70;;;;;;5033013;28;20307;-81
2023/03/25 07:55:41;;;;;;;;;;;9.90;80.30;;;;;;5033587;28;19909;-82
2023/03/25 07:58:06;;;;;;;;;;;9.90;79.90;;;;;;5027484;28;20283;-80
2023/03/25 08:00:32;;;;;;;;;;;9.80;79.90;;;;;;5027798;28;19996;-80
2023/03/25 08:02:57;;;;;;;;;;;9.80;79.60;;;;;;5034345;28;20012;-80
2023/03/25 08:05:23;;;;;;;;;;;9.80;79.50;;;;;;5034020;28;19921;-82
2023/03/25 08:07:49;;;;;;;;;;;9.70;79.60;;;;;;5042015;28;19931;-79
2023/03/25 08:10:15;;;;;;;;;;;9.70;79.50;;;;;;5035548;28;19921;-80
2023/03/25 08:12:41;;;;;;;;;;;9.80;79.10;;;;;;5029701;28;19921;-80
2023/03/25 08:15:06;;;;;;;;;;;9.70;79.30;;;;;;5039210;28;19919;-81
2023/03/25 08:17:32;;;;;;;;;;;9.80;78.00;;;;;;5032695;28;20140;-80
2023/03/25 08:19:59;;;;;;;;;;;9.70;78.40;;;;;;5030823;28;19919;-80
2023/03/25 08:22:26;;;;;;;;;;;9.80;78.70;;;;;;5037636;28;19951;-80
2023/03/25 08:24:51;;;;;;;;;;;9.80;78.40;;;;;;5038514;28;20358;-82
2023/03/25 08:27:17;;;;;;;;;;;9.70;77.60;;;;;;5034811;28;19952;-80
2023/03/25 08:29:43;;;;;;;;;;;9.80;77.80;;;;;;5013611;28;20014;-80
2023/03/25 08:32:08;;;;;;;;;;;9.70;77.10;;;;;;5033256;28;19935;-81
2023/03/25 08:34:38;;;;;;;;;;;9.80;76.90;;;;;;5036505;28;19972;-81
2023/03/25 08:37:04;;;;;;;;;;;9.90;76.30;;;;;;5035490;28;19952;-80
2023/03/25 08:39:38;;;;;;;;;;;10.10;75.90;;;;;;5019555;28;19921;-86
2023/03/25 08:42:07;;;;;;;;;;;10.10;75.70;;;;;;5033888;28;19913;-81
2023/03/25 08:44:33;;;;;;;;;;;10.30;75.00;;;;;;5033377;28;20365;-81
2023/03/25 08:46:58;;;;;;;;;;;10.50;74.30;;;;;;5033972;28;20008;-82
2023/03/25 08:49:24;;;;;;;;;;;10.50;74.00;;;;;;5031802;28;19917;-81
2023/03/25 08:51:49;;;;;;;;;;;10.50;73.70;;;;;;5030570;28;20000;-79
2023/03/25 08:54:15;;;;;;;;;;;10.50;74.00;;;;;;5031533;28;19921;-79
2023/03/25 08:56:41;;;;;;;;;;;10.60;73.70;;;;;;5032020;28;19913;-79
2023/03/25 08:59:06;;;;;;;;;;;10.50;73.30;;;;;;5028205;28;19999;-80
2023/03/25 09:01:32;;;;;;;;;;;10.60;73.90;;;;;;5031730;28;20370;-80
2023/03/25 09:03:57;;;;;;;;;;;10.60;73.50;;;;;;5044410;28;19948;-81
2023/03/25 09:06:24;;;;;;;;;;;10.70;73.30;;;;;;5038417;28;20398;-80
2023/03/25 09:08:51;;;;;;;;;;;10.60;73.00;;;;;;5046481;28;20259;-81
2023/03/25 09:11:16;;;;;;;;;;;10.70;73.00;;;;;;5041933;28;19924;-80
2023/03/25 09:13:42;;;;;;;;;;;10.70;73.30;;;;;;5041919;28;19913;-82
2023/03/25 09:16:08;;;;;;;;;;;10.70;74.80;;;;;;5036602;28;20278;-82
2023/03/25 09:18:35;;;;;;;;;;;10.60;74.60;;;;;;5036263;28;19948;-81
2023/03/25 09:21:01;;;;;;;;;;;10.60;74.60;;;;;;5016021;28;19913;-82
2023/03/25 09:23:26;;;;;;;;;;;10.60;75.20;;;;;;5038100;28;19987;-81
2023/03/25 09:25:52;;;;;;;;;;;10.50;76.00;;;;;;5028988;28;19920;-81
2023/03/25 09:28:17;;;;;;;;;;;10.40;76.80;;;;;;5034300;28;19919;-82
2023/03/25 09:30:43;;;;;;;;;;;10.30;76.80;;;;;;5031243;28;19955;-83
2023/03/25 09:33:08;;;;;;;;;;;10.30;76.30;;;;;;5043625;28;19920;-80
2023/03/25 09:35:34;;;;;;;;;;;10.30;76.80;;;;;;5036897;28;19976;-82
2023/03/25 09:37:59;;;;;;;;;;;10.50;76.10;;;;;;5034186;28;19925;-81
2023/03/25 09:40:28;;;;;;;;;;;10.50;75.70;;;;;;5032823;28;19996;-85
2023/03/25 09:42:54;;;;;;;;;;;10.60;75.80;;;;;;5029452;28;19921;-79
2023/03/25 09:45:38;;;;;;;;;;;10.70;75.50;;;;;;5033820;28;20440;-81
2023/03/25 09:48:04;;;;;;;;;;;10.70;76.80;;;;;;5045611;28;19924;-81
2023/03/25 09:50:32;;;;;;;;;;;10.80;77.60;;;;;;5024250;28;19921;-81
2023/03/25 09:52:57;;;;;;;;;;;10.70;76.90;;;;;;5091142;22;19924;-91
2023/03/25 09:55:24;;;;;;;;;;;10.60;77.90;;;;;;5075593;28;19976;-90
2023/03/25 09:57:53;;;;;;;;;;;10.50;78.60;;;;;;5074467;28;19915;-91
2023/03/25 10:00:22;;;;;;;;;;;10.40;78.90;;;;;;5072351;28;20483;-91
2023/03/25 10:03:14;;;;;;;;;;;10.40;79.10;;;;;;5072420;28;20381;-91
2023/03/25 10:05:52;;;;;;;;;;;10.50;79.40;;;;;;5087548;28;20377;-91
2023/03/25 10:08:39;;;;;;;;;;;10.70;77.90;;;;;;5094068;28;19920;-94
2023/03/25 10:11:04;;;;;;;;;;;10.80;77.50;;;;;;5080917;28;19912;-91
2023/03/25 10:13:56;;;;;;;;;;;11.10;76.80;;;;;;5077637;28;19912;-91
2023/03/25 10:16:34;;;;;;;;;;;11.30;76.60;;;;;;5061522;28;19908;-91
2023/03/25 10:19:21;;;;;;;;;;;11.40;75.80;;;;;;5092931;28;19912;-92
2023/03/25 10:21:57;;;;;;;;;;;11.50;75.70;;;;;;5093430;28;19908;-91
2023/03/25 10:24:41;;;;;;;;;;;11.80;74.60;;;;;;5082931;28;19954;-92
2023/03/25 10:27:40;;;;;;;;;;;11.80;73.90;;;;;;5076857;28;19916;-91
2023/03/25 10:30:17;;;;;;;;;;;11.80;72.50;;;;;;5021885;28;19966;-91
2023/03/25 10:32:45;;;;;;;;;;;11.90;72.50;;;;;;5084978;28;19915;-90
2023/03/25 10:35:15;;;;;;;;;;;11.90;71.60;;;;;;5076297;28;19959;-91
2023/03/25 10:37:56;;;;;;;;;;;12.00;72.10;;;;;;5078330;28;19908;-90
2023/03/25 10:47:12;;;;;;;;;;;11.10;78.20;;;;;;5061399;28;19961;-92
2023/03/25 10:49:50;;;;;;;;;;;10.90;78.60;;;;;;5015966;28;19909;-92
2023/03/25 10:52:44;;;;;;;;;;;10.70;80.90;;;;;;5029404;28;20038;-91
2023/03/25 10:55:40;;;;;;;;;;;10.50;82.50;;;;;;5059742;28;19913;-91
2023/03/25 10:58:11;;;;;;;;;;;10.40;82.40;;;;;;5075322;28;20369;-91
2023/03/25 11:00:59;;;;;;;;;;;10.50;82.90;;;;;;5076326;28;20284;-94
2023/03/25 11:03:35;;;;;;;;;;;10.60;83.40;;;;;;5081989;28;19916;-94
2023/03/25 11:06:19;;;;;;;;;;;10.80;81.80;;;;;;5074863;28;19916;-93
2023/03/25 11:09:06;;;;;;;;;;;10.80;81.00;;;;;;5084710;28;19912;-92
2023/03/25 11:11:46;;;;;;;;;;;10.90;80.70;;;;;;5077277;28;20373;-92
2023/03/25 11:14:43;;;;;;;;;;;11.00;77.60;;;;;;5076049;28;20007;-94
2023/03/25 11:17:27;;;;;;;;;;;;;;;;;;;;;
2023/03/25 11:20:12;;;;;;;;;;;;;;;;;;;;;
2023/03/25 11:22:45;;;;;;;;;;;11.20;76.10;;;;;;5104402;22;20023;-79
2023/03/25 11:25:15;;;;;;;;;;;11.10;78.10;;;;;;5092108;28;19928;-79
2023/03/25 11:27:46;;;;;;;;;;;11.20;78.10;;;;;;5072343;28;19912;-77
2023/03/25 11:30:16;;;;;;;;;;;11.10;78.00;;;;;;5093161;28;19908;-79
2023/03/25 11:32:41;;;;;;;;;;;11.10;77.70;;;;;;5093008;28;19914;-77
2023/03/25 11:35:15;;;;;;;;;;;11.10;77.20;;;;;;5089581;28;19912;-77
2023/03/25 11:37:45;;;;;;;;;;;11.00;76.90;;;;;;5090259;28;20366;-76
2023/03/25 11:40:15;;;;;;;;;;;10.90;77.80;;;;;;5071797;28;20729;-77
2023/03/25 11:42:48;;;;;;;;;;;10.90;78.30;;;;;;5089970;28;19915;-77
2023/03/25 11:45:44;;;;;;;;;;;11.00;79.30;;;;;;5082444;28;19919;-76
2023/03/25 11:48:11;;;;;;;;;;;11.00;77.80;;;;;;5074412;28;19955;-82
2023/03/25 11:50:36;;;;;;;;;;;11.10;77.10;;;;;;5073592;28;20363;-81
2023/03/25 11:53:03;;;;;;;;;;;11.10;76.80;;;;;;5075486;28;19916;-80
2023/03/25 11:55:43;;;;;;;;;;;11.30;77.40;;;;;;5097201;28;19919;-80
2023/03/25 11:58:14;;;;;;;;;;;11.40;77.30;;;;;;5114071;28;19981;-80
2023/03/25 12:00:48;;;;;;;;;;;11.60;76.30;;;;;;5096311;28;19962;-78
2023/03/25 12:03:14;;;;;;;;;;;11.70;74.40;;;;;;5097133;28;19925;-82
2023/03/25 12:05:40;;;;;;;;;;;11.70;74.70;;;;;;5085360;28;19946;-82
2023/03/25 12:08:08;;;;;;;;;;;11.90;74.20;;;;;;5095370;28;19908;-81
2023/03/25 12:10:43;;;;;;;;;;;11.80;74.00;;;;;;5078423;28;20359;-82
2023/03/25 12:13:15;;;;;;;;;;;11.80;75.30;;;;;;5076193;28;19913;-86
2023/03/25 12:15:58;;;;;;;;;;;11.80;74.10;;;;;;5085889;28;19969;-79
2023/03/25 12:18:29;;;;;;;;;;;11.90;74.70;;;;;;5072318;28;19942;-79
2023/03/25 12:20:59;;;;;;;;;;;12.00;73.90;;;;;;5076875;28;20589;-80
2023/03/25 12:23:25;;;;;;;;;;;12.00;74.00;;;;;;5074917;28;19920;-80
2023/03/25 12:26:09;;;;;;;;;;;12.10;73.80;;;;;;5094094;28;20502;-80
2023/03/25 12:28:38;;;;;;;;;;;12.20;73.10;;;;;;5075913;28;19923;-79
2023/03/25 12:31:03;;;;;;;;;;;12.20;73.40;;;;;;5091492;28;19965;-80
2023/03/25 12:33:41;;;;;;;;;;;12.40;72.90;;;;;;5090293;28;19916;-81
2023/03/25 12:36:16;;;;;;;;;;;12.40;72.60;;;;;;5079428;28;21751;-79
2023/03/25 12:38:45;;;;;;;;;;;12.30;71.70;;;;;;5071548;28;19923;-79
2023/03/25 12:41:21;;;;;;;;;;;12.30;73.00;;;;;;5089591;28;19963;-79
2023/03/25 12:43:58;;;;;;;;;;;12.30;71.20;;;;;;5069226;28;19916;-79
2023/03/25 12:46:32;;;;;;;;;;;12.50;71.00;;;;;;5089058;28;20428;-79
2023/03/25 12:49:04;;;;;;;;;;;12.60;70.50;;;;;;5089057;28;20414;-78
2023/03/25 12:51:39;;;;;;;;;;;12.30;69.10;;;;;;5074111;28;20357;-79
2023/03/25 12:54:07;;;;;;;;;;;12.30;70.30;;;;;;5092498;28;20331;-79
2023/03/25 12:56:56;;;;;;;;;;;12.40;69.80;;;;;;5067348;28;19920;-77
2023/03/25 12:59:24;;;;;;;;;;;12.30;68.90;;;;;;5090242;28;19947;-78
2023/03/25 13:01:56;;;;;;;;;;;12.30;69.50;;;;;;5072023;28;19980;-78
2023/03/25 13:04:22;;;;;;;;;;;12.10;69.90;;;;;;5083708;28;19927;-76
2023/03/25 13:07:04;;;;;;;;;;;12.10;70.80;;;;;;5073109;28;19912;-78
2023/03/25 13:09:35;;;;;;;;;;;12.20;70.70;;;;;;5071009;28;19916;-78
2023/03/25 13:12:03;;;;;;;;;;;12.10;71.50;;;;;;5089393;28;19994;-78
2023/03/25 13:14:33;;;;;;;;;;;12.20;70.60;;;;;;5087065;28;19980;-77
2023/03/25 13:17:02;;;;;;;;;;;12.20;70.50;;;;;;5068783;28;19964;-77
2023/03/25 13:19:29;;;;;;;;;;;12.40;69.50;;;;;;5072160;28;20007;-77
2023/03/25 13:21:59;;;;;;;;;;;12.40;68.80;;;;;;5069603;28;19912;-77
2023/03/25 13:24:31;;;;;;;;;;;12.40;67.70;;;;;;5081470;28;19916;-79
2023/03/25 13:26:58;;;;;;;;;;;12.60;68.50;;;;;;5070256;28;19912;-78
2023/03/25 13:29:27;;;;;;;;;;;12.60;68.20;;;;;;5090028;28;19913;-76
2023/03/25 13:31:54;;;;;;;;;;;12.60;68.00;;;;;;5084538;28;19979;-78
2023/03/25 13:34:21;;;;;;;;;;;12.60;65.80;;;;;;5075995;28;20339;-77
2023/03/25 13:36:58;;;;;;;;;;;12.80;66.80;;;;;;5070565;28;19920;-79
2023/03/25 13:39:26;;;;;;;;;;;12.70;65.60;;;;;;5087971;28;19982;-77
2023/03/25 13:42:18;;;;;;;;;;;12.60;65.80;;;;;;5080584;28;19950;-79
2023/03/25 13:44:45;;;;;;;;;;;12.40;69.10;;;;;;5071284;28;19916;-78
2023/03/25 13:47:11;;;;;;;;;;;12.20;70.80;;;;;;5096516;28;19915;-78
2023/03/25 13:49:41;;;;;;;;;;;12.30;69.80;;;;;;5077655;28;19908;-78
2023/03/25 13:52:07;;;;;;;;;;;12.30;70.20;;;;;;5082908;28;19912;-78
2023/03/25 13:54:42;;;;;;;;;;;12.20;70.20;;;;;;5095033;28;19908;-77
2023/03/25 13:57:13;;;;;;;;;;;12.10;70.50;;;;;;5063893;28;19912;-79
2023/03/25 13:59:50;;;;;;;;;;;12.20;71.40;;;;;;5088333;28;19937;-78
2023/03/25 14:02:35;;;;;;;;;;;12.40;71.20;;;;;;5070572;28;21515;-79
2023/03/25 14:05:19;;;;;;;;;;;12.50;70.20;;;;;;5081427;28;19924;-79
2023/03/25 14:07:47;;;;;;;;;;;12.20;70.30;;;;;;5085457;28;19920;-80
2023/03/25 14:10:23;;;;;;;;;;;12.00;70.30;;;;;;5092897;28;19934;-79
2023/03/25 14:12:49;;;;;;;;;;;11.90;70.50;;;;;;5075231;28;19935;-79
2023/03/25 14:15:20;;;;;;;;;;;11.80;70.60;;;;;;5069983;28;20346;-76
2023/03/25 14:17:49;;;;;;;;;;;11.80;70.50;;;;;;5081172;28;19935;-79
2023/03/25 14:20:17;;;;;;;;;;;11.70;70.70;;;;;;5069632;28;19999;-79
2023/03/25 14:22:43;;;;;;;;;;;11.70;72.50;;;;;;5075431;28;19931;-78
2023/03/25 14:25:20;;;;;;;;;;;11.70;72.20;;;;;;5093245;28;19924;-79
2023/03/25 14:27:47;;;;;;;;;;;11.60;71.30;;;;;;5064471;28;20222;-78
2023/03/25 14:30:23;;;;;;;;;;;11.70;71.90;;;;;;5072399;28;19912;-80
2023/03/25 14:32:50;;;;;;;;;;;11.70;71.60;;;;;;5092642;28;19912;-79
2023/03/25 14:35:35;;;;;;;;;;;11.80;71.30;;;;;;5073753;28;19920;-78
2023/03/25 14:38:06;;;;;;;;;;;11.70;71.50;;;;;;5069794;28;19995;-77
2023/03/25 14:40:38;;;;;;;;;;;11.60;71.40;;;;;;5080302;28;19908;-79
2023/03/25 14:43:36;;;;;;;;;;;11.50;74.60;;;;;;5070363;28;19912;-79
2023/03/25 14:46:17;;;;;;;;;;;11.40;76.60;;;;;;5066119;28;19896;-78
2023/03/25 14:48:47;;;;;;;;;;;11.10;79.60;;;;;;5116980;28;19900;-79